Time;durP1;ratioP1;P1;durP2;ratioP2;P2;SDS_P1;SDS_P2;PMS_P1;PMS_P2;Temp;Humidity;BMP_temperature;BMP_pressure;BME280_temperature;BME280_humidity;BME280_pressure;Samples;Min_cycle;Max_cycle;Signal;HPM_P1;HPM_P2
2022/05/13 00:00:46;;;;;;;12.40;9.90;;;;;;;22.03;100.00;96645.34;5069521;28;20096;-51
2022/05/13 00:03:15;;;;;;;13.43;11.40;;;;;;;21.56;100.00;96643.81;5069715;28;20060;-46
2022/05/13 00:05:43;;;;;;;15.05;10.43;;;;;;;21.65;100.00;96647.13;5065667;28;20506;-49
2022/05/13 00:08:11;;;;;;;13.63;10.43;;;;;;;21.95;100.00;96647.44;5049051;28;20064;-50
2022/05/13 00:10:39;;;;;;;15.80;9.80;;;;;;;21.43;100.00;96641.16;5067096;28;20063;-48
2022/05/13 00:13:08;;;;;;;17.45;11.13;;;;;;;21.30;100.00;96650.84;5070124;28;20064;-48
2022/05/13 00:15:36;;;;;;;15.38;10.95;;;;;;;21.30;100.00;96640.13;5069622;28;20529;-44
2022/05/13 00:18:07;;;;;;;15.70;10.80;;;;;;;20.95;100.00;96638.66;5069158;28;20064;-45
2022/05/13 00:20:36;;;;;;;13.93;10.35;;;;;;;20.63;100.00;96644.59;5069148;28;20075;-46
2022/05/13 00:23:04;;;;;;;16.77;11.57;;;;;;;21.02;100.00;96645.66;5069758;28;20068;-48
2022/05/13 00:25:35;;;;;;;14.32;11.95;;;;;;;20.93;100.00;96640.75;5068569;28;20061;-45
2022/05/13 00:28:06;;;;;;;14.90;11.65;;;;;;;21.19;100.00;96639.91;5067144;28;20080;-48
2022/05/13 00:30:36;;;;;;;26.13;12.75;;;;;;;20.72;100.00;96641.75;5068732;28;20071;-47
2022/05/13 00:33:06;;;;;;;;;;;;;;;21.34;100.00;96635.19;5068506;28;21152;-51
2022/05/13 00:35:34;;;;;;;16.70;11.97;;;;;;;21.24;100.00;96632.06;5053750;28;19974;-47
2022/05/13 00:38:03;;;;;;;13.88;12.13;;;;;;;21.31;100.00;96632.88;5067547;28;20892;-49
2022/05/13 00:40:31;;;;;;;14.50;11.45;;;;;;;21.38;100.00;96628.38;5068673;28;20075;-51
2022/05/13 00:43:03;;;;;;;14.25;11.27;;;;;;;21.28;100.00;96633.31;5069710;28;20439;-47
2022/05/13 00:45:32;;;;;;;17.52;12.02;;;;;;;21.17;100.00;96633.94;5068181;28;20067;-46
2022/05/13 00:48:01;;;;;;;12.90;11.32;;;;;;;21.50;100.00;96620.50;5071501;28;20048;-48
2022/05/13 00:50:34;;;;;;;15.15;11.35;;;;;;;21.47;100.00;96623.59;5068599;28;20104;-50
2022/05/13 00:53:03;;;;;;;16.33;11.60;;;;;;;21.63;100.00;96622.34;5064785;28;20482;-46
2022/05/13 00:55:37;;;;;;;16.90;11.93;;;;;;;21.53;100.00;96620.91;5068008;28;20079;-47
2022/05/13 00:58:08;;;;;;;18.13;12.55;;;;;;;21.45;100.00;96607.72;5063710;28;20597;-45
2022/05/13 01:00:37;;;;;;;19.73;11.95;;;;;;;21.35;100.00;96606.50;5068448;28;20383;-45
2022/05/13 01:03:05;;;;;;;15.30;12.05;;;;;;;21.14;100.00;96611.03;5067787;28;20072;-47
2022/05/13 01:05:36;;;;;;;14.27;11.65;;;;;;;21.53;100.00;96617.41;5066120;28;20715;-47
2022/05/13 01:08:06;;;;;;;;;;;;;;;21.24;100.00;96608.75;5063408;28;20076;-49
2022/05/13 01:10:37;;;;;;;14.97;11.60;;;;;;;21.51;100.00;96617.63;5065700;28;19998;-45
2022/05/13 01:13:07;;;;;;;14.52;10.65;;;;;;;21.29;100.00;96622.34;5073504;28;20498;-45
2022/05/13 01:15:40;;;;;;;13.63;10.63;;;;;;;21.06;100.00;96619.28;5067880;28;20064;-45
2022/05/13 01:18:08;;;;;;;17.10;11.18;;;;;;;21.53;100.00;96612.03;5066165;28;20086;-45
2022/05/13 01:20:47;;;;;;;14.13;11.20;;;;;;;21.12;100.00;96621.13;5067290;28;20079;-48
2022/05/13 01:23:19;;;;;;;13.35;11.02;;;;;;;21.65;100.00;96615.72;5068009;28;20071;-47
2022/05/13 01:25:51;;;;;;;14.80;12.32;;;;;;;21.56;100.00;96616.97;5067959;28;20170;-47
2022/05/13 01:28:22;;;;;;;13.85;11.55;;;;;;;21.73;100.00;96618.19;5067255;28;20071;-48
2022/05/13 01:30:52;;;;;;;15.48;10.90;;;;;;;21.55;100.00;96618.03;5068757;28;20536;-46
2022/05/13 01:33:21;;;;;;;13.25;11.40;;;;;;;21.45;100.00;96615.78;5067143;28;20060;-45
2022/05/13 01:35:51;;;;;;;15.45;11.48;;;;;;;21.66;100.00;96616.56;5067305;28;20072;-48
2022/05/13 01:38:24;;;;;;;12.95;10.38;;;;;;;21.63;100.00;96615.09;5068093;28;20071;-45
2022/05/13 01:40:52;;;;;;;13.15;11.02;;;;;;;21.55;100.00;96626.91;5064252;28;20068;-54
2022/05/13 01:43:21;;;;;;;15.55;10.63;;;;;;;21.24;100.00;96613.31;5068413;28;20072;-49
2022/05/13 01:45:49;;;;;;;14.30;10.93;;;;;;;21.23;100.00;96615.16;5066844;28;20072;-46
2022/05/13 01:48:18;;;;;;;12.70;11.27;;;;;;;21.54;100.00;96611.00;5067860;28;20070;-46
2022/05/13 01:50:47;;;;;;;15.88;11.50;;;;;;;21.47;100.00;96613.72;5068109;28;20170;-49
2022/05/13 01:53:15;;;;;;;15.90;11.73;;;;;;;21.54;100.00;96614.53;5067209;28;20060;-45
2022/05/13 01:55:45;;;;;;;14.80;11.35;;;;;;;21.47;100.00;96613.72;5067181;28;20067;-47
2022/05/13 01:58:16;;;;;;;14.30;11.20;;;;;;;21.08;100.00;96619.91;5064939;28;20080;-45
2022/05/13 02:00:47;;;;;;;14.70;11.43;;;;;;;21.21;100.00;96619.91;5065167;28;21061;-44
2022/05/13 02:06:03;;;;;;;13.13;10.88;;;;;;;21.21;100.00;96630.63;5066780;28;20415;-53
2022/05/13 02:08:32;;;;;;;15.15;11.38;;;;;;;21.46;100.00;96627.31;5067675;28;20068;-45
2022/05/13 02:11:02;;;;;;;13.98;11.77;;;;;;;21.49;100.00;96621.53;5066177;28;20078;-48
2022/05/13 02:13:30;;;;;;;14.77;11.38;;;;;;;21.35;100.00;96615.38;5067658;28;20091;-52
2022/05/13 02:15:59;;;;;;;12.20;10.80;;;;;;;21.18;100.00;96617.63;5066909;28;20057;-50
2022/05/13 02:18:28;;;;;;;14.75;11.85;;;;;;;20.91;100.00;96624.03;5065651;28;20037;-54
2022/05/13 02:20:56;;;;;;;14.75;12.57;;;;;;;21.08;100.00;96627.94;5066679;28;20114;-50
2022/05/13 02:23:25;;;;;;;14.85;12.80;;;;;;;20.97;100.00;96618.66;5066465;28;20060;-45
2022/05/13 02:25:59;;;;;;;13.52;11.80;;;;;;;20.67;100.00;96626.25;5064646;28;20071;-46
2022/05/13 02:28:30;;;;;;;13.75;11.40;;;;;;;20.68;100.00;96613.69;5066099;28;20100;-49
2022/05/13 02:30:59;;;;;;;14.48;11.93;;;;;;;20.63;100.00;96617.81;5063179;28;20472;-46
2022/05/13 02:33:28;;;;;;;16.70;12.30;;;;;;;20.90;100.00;96620.53;5066993;28;20032;-50
2022/05/13 02:35:56;;;;;;;15.57;11.55;;;;;;;20.93;100.00;96625.47;5066234;28;20064;-47
2022/05/13 02:38:25;;;;;;;17.13;12.00;;;;;;;20.78;100.00;96619.47;5066700;28;20075;-54
2022/05/13 02:43:41;;;;;;;15.98;12.80;;;;;;;20.84;100.00;96607.94;5066397;28;20071;-52
2022/05/13 02:46:09;;;;;;;;;;;;;;;;;;5064460;28;20076;-46
2022/05/13 02:48:38;;;;;;;17.88;12.50;;;;;;;20.93;100.00;96605.88;5067571;28;20058;-50
2022/05/13 02:51:06;;;;;;;17.15;12.93;;;;;;;20.99;100.00;96605.03;5065854;28;20518;-47
2022/05/13 02:53:35;;;;;;;16.50;12.32;;;;;;;21.21;100.00;96609.16;5066012;28;20090;-46
2022/05/13 02:56:03;;;;;;;13.80;12.38;;;;;;;20.86;100.00;96605.88;5065800;28;20068;-45
2022/05/13 02:58:31;;;;;;;16.00;12.55;;;;;;;20.74;100.00;96604.84;5059417;28;20072;-50
2022/05/13 03:01:02;;;;;;;16.85;13.45;;;;;;;21.09;100.00;96603.63;5065705;28;20095;-49
2022/05/13 03:03:33;;;;;;;20.05;13.25;;;;;;;21.24;100.00;96607.94;5065967;28;20068;-46
2022/05/13 03:06:02;;;;;;;15.95;12.77;;;;;;;20.91;100.00;96605.25;5065601;28;20585;-46
2022/05/13 03:08:30;;;;;;;15.23;12.68;;;;;;;21.13;100.00;96604.03;5068256;28;20067;-46
2022/05/13 03:10:58;;;;;;;18.88;13.05;;;;;;;21.03;100.00;96604.44;5067714;28;20072;-45
2022/05/13 03:13:27;;;;;;;17.70;13.73;;;;;;;20.91;100.00;96599.91;5059082;28;20581;-50
2022/05/13 03:15:55;;;;;;;15.30;13.15;;;;;;;21.06;100.00;96608.56;5067923;28;20073;-50
2022/05/13 03:18:24;;;;;;;16.67;13.68;;;;;;;20.72;100.00;96612.28;5068077;28;20075;-49
2022/05/13 03:20:53;;;;;;;17.33;14.00;;;;;;;20.91;100.00;96611.44;5066942;28;20079;-48
2022/05/13 03:23:21;;;;;;;24.40;13.63;;;;;;;20.89;100.00;96607.31;5067952;28;20485;-45
2022/05/13 03:25:49;;;;;;;13.63;12.10;;;;;;;20.32;100.00;96596.91;5067726;28;20110;-48
2022/05/13 03:28:17;;;;;;;15.18;12.07;;;;;;;20.95;100.00;96603.81;5067080;28;20068;-52
2022/05/13 03:30:46;;;;;;;12.55;10.85;;;;;;;21.03;100.00;96601.75;5067977;28;20095;-50
2022/05/13 03:33:15;;;;;;;14.05;11.93;;;;;;;20.62;100.00;96601.94;5067446;28;20075;-46
2022/05/13 03:35:44;;;;;;;13.60;12.02;;;;;;;20.66;100.00;96599.69;5067127;28;20064;-45
2022/05/13 03:38:13;;;;;;;14.15;11.35;;;;;;;20.95;100.00;96601.94;5067965;28;20041;-45
2022/05/13 03:40:42;;;;;;;14.00;12.02;;;;;;;20.64;100.00;96597.19;5059345;28;20061;-49
2022/05/13 03:43:10;;;;;;;12.50;10.93;;;;;;;21.67;100.00;96597.53;5061843;28;20099;-45
2022/05/13 03:45:38;;;;;;;11.82;10.63;;;;;;;20.32;100.00;96596.09;5063957;28;20739;-46
2022/05/13 03:48:07;;;;;;;13.38;9.75;;;;;;;20.83;100.00;96592.88;5064372;28;20074;-49
2022/05/13 03:50:38;;;;;;;12.10;10.38;;;;;;;20.42;100.00;96604.56;5063982;28;20056;-45
2022/05/13 03:53:08;;;;;;;14.07;9.35;;;;;;;20.24;100.00;96594.41;5059011;28;20075;-48
2022/05/13 03:55:36;;;;;;;12.70;10.20;;;;;;;20.63;100.00;96595.53;5066078;28;20069;-45
2022/05/13 03:58:05;;;;;;;11.68;9.55;;;;;;;20.84;100.00;96598.03;5063718;28;20069;-47
2022/05/13 04:00:34;;;;;;;13.20;9.75;;;;;;;21.08;100.00;96593.91;5059545;28;20587;-46
2022/05/13 04:03:02;;;;;;;15.00;10.15;;;;;;;20.71;100.00;96589.16;5058514;28;20065;-45
2022/05/13 04:11:09;;;;;;;12.88;10.13;;;;;;;20.67;100.00;96593.28;5038335;28;20056;-48
2022/05/13 04:16:23;;;;;;;13.13;10.20;;;;;;;20.84;100.00;96595.34;5062338;28;20087;-53
2022/05/13 04:18:53;;;;;;;12.68;9.98;;;;;;;20.96;100.00;96586.72;5062804;28;20075;-47
2022/05/13 04:21:23;;;;;;;10.90;9.80;;;;;;;20.98;100.00;96600.72;5061698;28;20531;-47
2022/05/13 04:23:55;;;;;;;13.10;10.05;;;;;;;21.02;100.00;96615.34;5063242;28;20072;-48
2022/05/13 04:26:24;;;;;;;11.50;9.82;;;;;;;21.16;100.00;96618.84;5065279;28;20132;-51
2022/05/13 04:28:54;;;;;;;13.23;9.93;;;;;;;20.78;100.00;96622.16;5061292;28;20060;-50
2022/05/13 04:31:24;;;;;;;13.10;11.20;;;;;;;20.85;100.00;96626.50;5069440;28;20554;-53
2022/05/13 04:33:53;;;;;;;13.95;10.95;;;;;;;21.33;100.00;96625.44;5071323;28;20084;-45
2022/05/13 04:36:23;;;;;;;13.48;10.80;;;;;;;21.51;100.00;96630.22;5070858;28;20072;-48
2022/05/13 04:38:53;;;;;;;12.60;10.75;;;;;;;21.20;100.00;96628.16;5070623;28;20068;-49
2022/05/13 04:44:10;;;;;;;12.88;10.82;;;;;;;21.53;100.00;96646.91;5070845;28;20610;-52
2022/05/13 04:46:39;;;;;;;17.15;11.55;;;;;;;21.09;100.00;96665.28;5070056;28;20068;-49
2022/05/13 04:49:07;;;;;;;15.68;11.00;;;;;;;20.87;100.00;96677.22;5070547;28;20079;-47
2022/05/13 04:51:36;;;;;;;15.27;10.90;;;;;;;20.97;100.00;96679.50;5066882;28;20092;-48
2022/05/13 04:54:07;;;;;;;13.00;11.57;;;;;;;20.60;100.00;96689.75;5073376;28;20451;-51
2022/05/13 04:56:36;;;;;;;13.05;11.43;;;;;;;21.23;100.00;96692.09;5056839;28;20068;-52
2022/05/13 04:59:05;;;;;;;12.77;10.63;;;;;;;20.84;100.00;96688.34;5069866;28;20075;-48
2022/05/13 05:01:33;;;;;;;13.80;11.00;;;;;;;21.21;100.00;96684.25;5069694;28;20056;-53
2022/05/13 05:04:02;;;;;;;14.68;11.95;;;;;;;20.87;100.00;96687.94;5070525;28;20545;-53
2022/05/13 05:06:34;;;;;;;13.23;10.45;;;;;;;20.36;100.00;96672.31;5068096;28;20064;-50
2022/05/13 05:09:02;;;;;;;11.27;10.07;;;;;;;20.20;100.00;96686.91;5069948;28;20079;-47
2022/05/13 05:11:33;;;;;;;9.60;7.18;;;;;;;19.72;100.00;96678.84;5069762;28;20143;-47
2022/05/13 05:14:02;;;;;;;9.07;7.40;;;;;;;19.70;100.00;96672.84;5070425;28;20068;-49
2022/05/13 05:16:30;;;;;;;8.07;7.28;;;;;;;19.83;100.00;96678.28;5070218;28;20097;-49
2022/05/13 05:18:59;;;;;;;10.90;7.88;;;;;;;19.89;100.00;96674.00;5070830;28;20084;-48
2022/05/13 05:21:29;;;;;;;11.15;7.72;;;;;;;19.98;100.00;96671.97;5069395;28;20438;-48
2022/05/13 05:23:58;;;;;;;10.88;8.10;;;;;;;20.07;100.00;96671.59;5070202;28;20075;-52
2022/05/13 05:26:26;;;;;;;11.23;8.02;;;;;;;20.07;100.00;96676.97;5070119;28;20068;-47
2022/05/13 05:28:56;;;;;;;10.45;8.75;;;;;;;20.33;100.00;96676.22;5069795;28;20076;-50
2022/05/13 05:31:24;;;;;;;13.00;8.87;;;;;;;20.61;100.00;96675.31;5069571;28;20091;-54
2022/05/13 05:33:53;;;;;;;12.88;9.40;;;;;;;20.61;100.00;96670.78;5069793;28;20748;-49
2022/05/13 05:36:21;;;;;;;10.77;8.90;;;;;;;20.71;100.00;96672.25;5069981;28;20071;-53
2022/05/13 05:38:49;;;;;;;11.55;9.60;;;;;;;20.34;100.00;96672.53;5069362;28;20079;-50
2022/05/13 05:41:18;;;;;;;12.23;9.23;;;;;;;20.43;100.00;96677.69;5069291;28;20064;-46
2022/05/13 05:43:46;;;;;;;13.65;10.00;;;;;;;20.22;100.00;96682.16;5068837;28;20068;-51
2022/05/13 05:46:16;;;;;;;11.65;8.48;;;;;;;20.09;100.00;96684.78;5069591;28;20088;-49
2022/05/13 05:48:44;;;;;;;12.90;9.07;;;;;;;20.24;100.00;96677.44;5068227;28;20080;-52
2022/05/13 05:51:13;;;;;;;10.60;8.85;;;;;;;20.26;100.00;96688.75;5069439;28;20597;-48
2022/05/13 05:59:12;;;;;;;11.98;9.38;;;;;;;20.10;100.00;96687.28;5069071;28;20072;-52
2022/05/13 06:01:43;;;;;;;11.98;8.55;;;;;;;20.06;100.00;96688.69;5068509;28;20117;-53
2022/05/13 06:04:18;;;;;;;10.63;9.18;;;;;;;20.53;100.00;96676.31;5068628;28;20084;-49
2022/05/13 06:06:47;;;;;;;8.68;7.82;;;;;;;20.21;100.00;96685.88;5069446;28;20522;-52
2022/05/13 06:09:15;;;;;;;11.75;8.32;;;;;;;20.13;100.00;96691.38;5068964;28;20494;-53
2022/05/13 06:11:44;;;;;;;10.65;7.22;;;;;;;19.94;100.00;96692.94;5068908;28;20056;-50
2022/05/13 06:14:12;;;;;;;10.45;8.10;;;;;;;20.30;100.00;96692.72;5069083;28;20068;-50
2022/05/13 06:16:42;;;;;;;8.93;7.65;;;;;;;20.36;100.00;96686.53;5065302;28;20486;-51
2022/05/13 06:19:10;;;;;;;11.20;7.72;;;;;;;20.89;100.00;96677.84;5069585;28;20596;-51
2022/05/13 06:21:39;;;;;;;10.40;8.10;;;;;;;20.62;100.00;96679.66;5062477;28;20561;-51
2022/05/13 06:24:08;;;;;;;10.60;8.68;;;;;;;21.57;100.00;96677.66;5063143;28;20060;-49
2022/05/13 06:26:36;;;;;;;15.52;8.27;;;;;;;21.94;100.00;96670.78;5062406;28;20071;-53
2022/05/13 06:29:05;;;;;;;12.57;7.97;;;;;;;21.60;100.00;96660.31;5068523;28;20072;-46
2022/05/13 06:31:35;;;;;;;9.40;8.10;;;;;;;21.81;100.00;96670.81;5064202;28;20071;-46
2022/05/13 06:34:05;;;;;;;11.43;8.70;;;;;;;21.52;100.00;96667.56;5069105;28;20088;-49
2022/05/13 06:36:34;;;;;;;11.68;9.05;;;;;;;21.39;100.00;96664.06;5068394;28;20060;-49
2022/05/13 06:39:03;;;;;;;12.13;8.52;;;;;;;21.80;100.00;96669.16;5068090;28;20079;-48
2022/05/13 06:41:37;;;;;;;11.63;8.38;;;;;;;21.64;100.00;96673.09;5067760;28;20036;-48
2022/05/13 06:44:06;;;;;;;8.73;7.80;;;;;;;21.50;100.00;96671.47;5067886;28;20593;-46
2022/05/13 06:46:35;;;;;;;11.50;7.63;;;;;;;22.45;100.00;96674.53;5068452;28;20068;-52
2022/05/13 06:49:05;;;;;;;9.80;8.13;;;;;;;21.78;100.00;96680.13;5068480;28;20086;-47
2022/05/13 06:51:35;;;;;;;8.75;7.43;;;;;;;21.79;100.00;96673.72;5068000;28;20083;-47
2022/05/13 06:54:06;;;;;;;8.57;7.22;;;;;;;22.26;100.00;96674.44;5068000;28;20122;-47
2022/05/13 06:56:36;;;;;;;8.63;7.22;;;;;;;22.67;100.00;96669.66;5068278;28;20072;-47
2022/05/13 06:59:05;;;;;;;;;;;;;;;22.67;100.00;96677.72;5066472;28;20114;-48
2022/05/13 07:01:40;;;;;;;9.57;6.82;;;;;;;23.00;100.00;96668.66;5051646;28;20326;-46
2022/05/13 07:04:10;;;;;;;9.00;6.15;;;;;;;23.19;100.00;96665.00;5070268;28;20072;-47
2022/05/13 07:06:39;;;;;;;7.63;6.20;;;;;;;22.89;100.00;96662.91;5068026;28;20513;-48
2022/05/13 07:09:07;;;;;;;6.85;6.15;;;;;;;23.09;100.00;96665.50;5068766;28;20075;-46
2022/05/13 07:11:36;;;;;;;16.48;6.50;;;;;;;23.33;100.00;96666.56;5067842;28;20060;-50
2022/05/13 07:14:04;;;;;;;7.65;6.20;;;;;;;22.63;100.00;96663.91;5067714;28;20071;-49
2022/05/13 07:16:33;;;;;;;7.10;5.90;;;;;;;23.33;100.00;96663.00;5068697;28;20057;-47
2022/05/13 07:19:06;;;;;;;8.73;5.85;;;;;;;22.32;100.00;96672.75;5068755;28;20088;-48
2022/05/13 07:21:37;;;;;;;6.80;5.70;;;;;;;22.29;100.00;96678.53;5061060;28;20067;-50
2022/05/13 07:24:06;;;;;;;8.32;5.45;;;;;;;22.55;100.00;96666.84;5061823;28;20519;-50
2022/05/13 07:26:34;;;;;;;6.57;5.20;;;;;;;22.18;100.00;96671.16;5068232;28;20056;-49
2022/05/13 07:29:04;;;;;;;8.35;5.60;;;;;;;22.36;100.00;96679.31;5067999;28;20072;-47
2022/05/13 07:31:33;;;;;;;6.13;5.53;;;;;;;23.20;100.00;96669.34;5067640;28;20075;-50
2022/05/13 07:34:02;;;;;;;6.32;4.88;;;;;;;22.34;100.00;96675.22;5068714;28;20079;-46
2022/05/13 07:36:31;;;;;;;6.35;5.20;;;;;;;22.37;100.00;96667.56;5067651;28;20056;-47
2022/05/13 07:41:48;;;;;;;6.68;5.57;;;;;;;22.52;100.00;96675.34;5062171;28;20067;-46
2022/05/13 07:44:17;;;;;;;9.88;6.30;;;;;;;22.90;100.00;96678.00;5067662;28;20439;-48
2022/05/13 07:46:46;;;;;;;6.70;5.88;;;;;;;23.01;100.00;96678.38;5067729;28;20068;-51
2022/05/13 07:49:15;;;;;;;8.30;6.25;;;;;;;22.72;100.00;96675.22;5068062;28;20080;-49
2022/05/13 07:51:44;;;;;;;6.55;5.95;;;;;;;22.95;100.00;96677.38;5068394;28;20083;-48
2022/05/13 07:54:14;;;;;;;7.60;6.57;;;;;;;22.69;100.00;96671.09;5064874;28;20072;-46
2022/05/13 07:56:42;;;;;;;7.13;6.43;;;;;;;22.89;100.00;96676.38;5069730;28;20048;-48
2022/05/13 07:59:11;;;;;;;7.28;5.97;;;;;;;23.41;100.00;96673.53;5076361;28;20059;-48
2022/05/13 08:01:39;;;;;;;8.88;6.07;;;;;;;22.95;100.00;96661.22;5072547;28;20079;-47
2022/05/13 08:04:07;;;;;;;8.68;6.25;;;;;;;23.95;100.00;96668.44;5060899;28;20106;-52
2022/05/13 08:06:36;;;;;;;7.97;6.38;;;;;;;24.14;100.00;96670.09;5071133;28;21588;-47
2022/05/13 08:09:05;;;;;;;7.15;6.13;;;;;;;24.20;100.00;96671.09;5071559;28;20064;-54
2022/05/13 08:11:35;;;;;;;8.70;5.93;;;;;;;23.84;100.00;96670.84;5071381;28;20092;-49
2022/05/13 08:14:07;;;;;;;9.48;6.43;;;;;;;23.81;100.00;96667.75;5065451;28;20159;-52
2022/05/13 08:16:36;;;;;;;8.52;5.75;;;;;;;24.12;100.00;96662.25;5071789;28;20036;-55
2022/05/13 08:19:05;;;;;;;7.38;5.88;;;;;;;24.06;100.00;96659.63;5071394;28;20556;-53
2022/05/13 08:21:33;;;;;;;6.93;4.82;;;;;;;23.96;100.00;96665.53;5070963;28;20064;-52
2022/05/13 08:24:02;;;;;;;6.95;5.28;;;;;;;23.73;100.00;96666.19;5067538;28;20128;-52
2022/05/13 08:26:30;;;;;;;8.40;5.38;;;;;;;23.99;100.00;96675.06;5071649;28;20507;-55
2022/05/13 08:29:00;;;;;;;7.28;5.03;;;;;;;24.19;100.00;96670.28;5071028;28;20093;-53
2022/05/13 08:31:28;;;;;;;6.85;5.18;;;;;;;23.74;100.00;96669.72;5061798;28;20032;-50
2022/05/13 08:33:57;;;;;;;6.10;5.38;;;;;;;23.64;100.00;96680.94;5071436;28;20095;-48
2022/05/13 08:36:25;;;;;;;8.00;5.63;;;;;;;23.53;100.00;96679.81;5068532;28;20052;-50
2022/05/13 08:38:54;;;;;;;7.70;5.85;;;;;;;23.52;100.00;96680.03;5070893;28;20132;-50
2022/05/13 08:41:42;;;;;;;6.90;6.20;;;;;;;23.66;100.00;96674.31;5071294;28;20064;-55
2022/05/13 08:44:13;;;;;;;6.90;6.18;;;;;;;23.91;100.00;96673.47;5071075;28;20067;-54
2022/05/13 08:46:44;;;;;;;7.93;6.18;;;;;;;23.92;100.00;96667.88;5071206;28;20071;-52
2022/05/13 08:49:35;;;;;;;8.73;6.10;;;;;;;24.08;100.00;96665.59;5065405;28;20059;-48
2022/05/13 08:54:55;;;;;;;7.70;6.55;;;;;;;24.32;100.00;96663.88;5069137;28;21382;-51
2022/05/13 08:57:27;;;;;;;7.25;6.25;;;;;;;23.90;100.00;96658.34;5070641;28;20060;-53
2022/05/13 09:00:00;;;;;;;7.53;6.65;;;;;;;24.54;100.00;96662.38;5069194;28;20064;-54
2022/05/13 09:02:37;;;;;;;8.80;6.38;;;;;;;24.67;100.00;96657.84;5064496;28;20060;-49
2022/05/13 09:05:11;;;;;;;9.23;6.57;;;;;;;23.87;100.00;96662.31;5069926;28;20600;-52
2022/05/13 09:07:39;;;;;;;7.57;6.20;;;;;;;23.61;100.00;96670.66;5070092;28;20056;-52
2022/05/13 09:10:08;;;;;;;7.40;6.70;;;;;;;23.28;100.00;96670.94;5070803;28;20072;-52
2022/05/13 09:12:42;;;;;;;11.05;7.50;;;;;;;23.54;100.00;96669.91;5069791;28;21528;-50
2022/05/13 09:15:17;;;;;;;8.40;7.50;;;;;;;22.60;100.00;96679.63;5070485;28;20071;-51
2022/05/13 09:17:59;;;;;;;10.95;7.45;;;;;;;22.04;100.00;96689.97;5070081;28;20079;-56
2022/05/13 09:20:27;;;;;;;8.98;7.88;;;;;;;22.40;100.00;96677.03;5068122;28;20071;-53
2022/05/13 09:22:58;;;;;;;8.70;7.32;;;;;;;21.81;100.00;96689.59;5070012;28;20056;-48
2022/05/13 09:25:29;;;;;;;9.25;7.85;;;;;;;21.46;100.00;96683.66;5069877;28;20080;-53
2022/05/13 09:28:00;;;;;;;9.20;8.30;;;;;;;21.73;100.00;96687.97;5065464;28;20470;-50
2022/05/13 09:30:37;;;;;;;10.85;9.35;;;;;;;21.81;100.00;96687.75;5068823;28;20075;-55
2022/05/13 09:33:24;;;;;;;9.27;7.70;;;;;;;21.38;100.00;96682.03;5069662;28;20057;-56
2022/05/13 09:35:55;;;;;;;10.23;8.15;;;;;;;21.22;100.00;96695.81;5070378;28;20068;-54
2022/05/13 09:38:24;;;;;;;;;;;;;;;20.85;100.00;96696.22;5070263;28;20078;-54
2022/05/13 09:41:01;;;;;;;12.05;8.50;;;;;;;20.68;100.00;96692.25;5069405;28;20015;-50
2022/05/13 09:43:36;;;;;;;11.05;9.15;;;;;;;21.00;100.00;96693.34;5069694;28;20088;-50
2022/05/13 09:46:08;;;;;;;12.43;9.32;;;;;;;21.14;100.00;96698.72;5070213;28;20094;-55
2022/05/13 09:48:38;;;;;;;9.13;7.65;;;;;;;21.01;100.00;96719.09;5064405;28;21867;-54
2022/05/13 09:51:25;;;;;;;10.40;9.10;;;;;;;20.90;100.00;96698.28;5069537;28;20064;-53
2022/05/13 09:54:07;;;;;;;9.65;7.70;;;;;;;20.62;100.00;96701.91;5066685;28;20079;-50
2022/05/13 09:56:40;;;;;;;10.05;8.07;;;;;;;21.06;100.00;96695.19;5069920;28;20064;-51
2022/05/13 09:59:17;;;;;;;9.80;7.97;;;;;;;21.39;100.00;96688.22;5070434;28;20169;-55
2022/05/13 10:01:47;;;;;;;8.98;7.57;;;;;;;21.06;100.00;96691.69;5067781;28;20079;-49
2022/05/13 10:04:20;;;;;;;;;;;;;;;21.16;100.00;96693.94;5069701;28;20087;-54
2022/05/13 10:06:48;;;;;;;9.73;7.65;;;;;;;21.29;100.00;96693.97;5069621;28;19967;-48
2022/05/13 10:15:08;;;;;;;7.60;6.80;;;;;;;21.10;100.00;96688.41;5065110;28;20558;-47
2022/05/13 10:17:45;;;;;;;9.15;7.10;;;;;;;21.24;100.00;96673.13;5067969;28;20080;-54
2022/05/13 10:20:22;;;;;;;10.48;8.07;;;;;;;21.40;100.00;96689.84;5068902;28;20068;-47
2022/05/13 10:22:54;;;;;;;9.93;7.47;;;;;;;20.95;100.00;96701.16;5068595;28;20056;-46
2022/05/13 10:25:26;;;;;;;11.90;6.30;;;;;;;20.92;100.00;96700.72;5068272;28;20087;-51
2022/05/13 10:27:57;;;;;;;6.90;6.20;;;;;;;20.84;100.00;96699.06;5064340;28;20482;-50
2022/05/13 10:30:33;;;;;;;8.32;6.22;;;;;;;20.55;100.00;96705.59;5063394;28;20682;-46
2022/05/13 10:33:07;;;;;;;10.27;7.40;;;;;;;19.59;100.00;96717.00;5067939;28;20522;-50
2022/05/13 10:35:45;;;;;;;8.15;7.20;;;;;;;19.44;100.00;96713.56;5069093;28;20064;-52
2022/05/13 10:38:19;;;;;;;10.55;7.70;;;;;;;19.39;100.00;96716.00;5068613;28;20064;-49
2022/05/13 10:40:48;;;;;;;10.98;7.85;;;;;;;19.46;100.00;96730.25;5068351;28;20060;-47
2022/05/13 10:43:20;;;;;;;11.52;8.55;;;;;;;19.28;100.00;96732.59;5067158;28;20084;-51
2022/05/13 10:45:50;;;;;;;11.88;8.43;;;;;;;19.25;100.00;96723.09;5068788;28;20079;-46
2022/05/13 10:48:22;;;;;;;;;;;;;;;19.22;100.00;96726.16;5069080;28;20658;-53
2022/05/13 10:51:08;;;;;;;11.80;8.13;;;;;;;19.19;100.00;96737.22;5068109;28;19963;-47
2022/05/13 10:53:54;;;;;;;12.07;8.48;;;;;;;19.06;100.00;96743.28;5069659;28;20063;-55
2022/05/13 10:56:25;;;;;;;10.07;7.72;;;;;;;18.97;100.00;96739.91;5069059;28;20086;-54
2022/05/13 10:58:58;;;;;;;14.48;9.35;;;;;;;19.32;100.00;96745.38;5068310;28;20076;-52
2022/05/13 11:01:39;;;;;;;12.57;9.15;;;;;;;19.02;100.00;96749.19;5067983;28;20084;-47
2022/05/13 11:04:10;;;;;;;;;;;;;;;19.01;100.00;96753.72;5063518;28;20087;-51
2022/05/13 11:06:51;;;;;;;10.77;8.35;;;;;;;18.78;100.00;96755.72;5067905;28;21546;-48
2022/05/13 11:09:23;;;;;;;;;;;;;;;18.84;100.00;96747.78;5068927;28;20067;-47
2022/05/13 11:11:57;;;;;;;10.23;7.60;;;;;;;18.53;100.00;96756.03;5062051;28;19960;-49
2022/05/13 11:14:36;;;;;;;10.93;8.80;;;;;;;18.65;100.00;96751.88;5067682;28;20072;-51
2022/05/13 11:17:18;;;;;;;9.02;7.95;;;;;;;18.62;100.00;96760.25;5068509;28;20072;-47
2022/05/13 11:19:59;;;;;;;10.30;7.68;;;;;;;18.62;100.00;96757.59;5065011;28;20079;-50
2022/05/13 11:22:31;;;;;;;8.63;7.68;;;;;;;18.60;100.00;96748.94;5067622;28;20471;-47
2022/05/13 11:28:03;;;;;;;9.90;8.07;;;;;;;18.93;100.00;96740.50;5063073;28;20281;-46
2022/05/13 11:30:40;;;;;;;9.05;7.90;;;;;;;19.26;100.00;96726.59;5071035;28;20475;-48
2022/05/13 11:33:18;;;;;;;12.48;7.45;;;;;;;19.64;100.00;96721.78;5072012;28;20071;-48
2022/05/13 11:35:59;;;;;;;9.57;6.78;;;;;;;19.60;100.00;96707.94;5071920;28;20072;-49
2022/05/13 11:38:42;;;;;;;7.60;6.32;;;;;;;20.19;100.00;96705.84;5071677;28;20060;-49
2022/05/13 11:41:13;;;;;;;7.60;6.47;;;;;;;20.08;100.00;96701.88;5071304;28;20065;-48
2022/05/13 11:44:04;;;;;;;8.45;5.80;;;;;;;20.03;100.00;96705.16;5070317;28;20046;-51
2022/05/13 11:46:57;;;;;;;9.02;5.95;;;;;;;19.93;100.00;96710.03;5072809;28;20053;-57
2022/05/13 11:49:28;;;;;;;7.70;6.03;;;;;;;19.59;100.00;96730.38;5053683;28;20079;-48
2022/05/13 11:51:59;;;;;;;7.38;5.72;;;;;;;19.66;100.00;96712.53;5072714;28;20094;-53
2022/05/13 11:54:29;;;;;;;8.93;6.20;;;;;;;20.06;100.00;96712.78;5072207;28;20543;-52
2022/05/13 11:57:21;;;;;;;9.85;6.35;;;;;;;20.33;100.00;96710.22;5071941;28;20064;-47
2022/05/13 11:59:51;;;;;;;9.05;6.40;;;;;;;20.93;100.00;96708.59;5066448;28;20060;-49
2022/05/13 12:02:32;;;;;;;10.43;5.60;;;;;;;21.22;100.00;96704.69;5065643;28;20064;-50
2022/05/13 12:05:11;;;;;;;7.32;5.85;;;;;;;21.09;100.00;96710.03;5071639;28;20332;-50
2022/05/13 12:07:51;;;;;;;7.25;5.90;;;;;;;21.28;100.00;96703.88;5069368;28;20079;-48
2022/05/13 12:10:25;;;;;;;9.02;5.82;;;;;;;21.39;100.00;96713.19;5071583;28;20084;-51
2022/05/13 12:13:03;;;;;;;8.15;5.85;;;;;;;20.72;100.00;96708.75;5072001;28;20083;-47